Morganville, Kansas
Current Conditions -  °F | °C
As of 10:55 PM on Wednesday 22 Oct 2014 (Local Time) from KCNK Reporting Station
Light Rain Light Rain  
Wind Chill: 62°   Ceiling: 6000
Heat Index: 62°   Visibility: 10mi
Dew Point: 60°   Wind: 5mph
Humidity: 93%   Direction: 170°S
Pressure: 30.06"   Gusts: NA
Location:  39.47°N, 97.2°W
Report Text: KCNK 230355Z AUTO 17004KT 10SM -RA FEW039 BKN060 OVC100 17/16 A3006 RMK AO2 RAB21 SLP172 P0006 T01670156
Loading
Personal Weather Stations






























Interactive Weather Map New forecast layout! Learn more

10-Day Weather Forecast

Advertisements
Track Severe Weather on mobile